Time;durP1;ratioP1;P1;durP2;ratioP2;P2;SDS_P1;SDS_P2;PMS_P1;PMS_P2;Temp;Humidity;BMP_temperature;BMP_pressure;BME280_temperature;BME280_humidity;BME280_pressure;Samples;Min_cycle;Max_cycle;Signal;HPM_P1;HPM_P2
2020/12/09 00:00:36;;;;;;;74.43;40.30;;;;;;;4.83;100.00;93966.50;5089745;28;20428;-72
2020/12/09 00:03:05;;;;;;;66.00;39.13;;;;;;;5.25;100.00;93983.72;5090096;28;20444;-72
2020/12/09 00:05:32;;;;;;;51.97;38.57;;;;;;;5.36;100.00;93979.31;5089664;28;20463;-73
2020/12/09 00:07:58;;;;;;;72.57;40.20;;;;;;;5.36;100.00;93982.66;5095951;28;20820;-73
2020/12/09 00:10:24;;;;;;;60.17;39.77;;;;;;;5.08;100.00;93987.09;5110314;28;20447;-74
2020/12/09 00:12:51;;;;;;;61.77;40.20;;;;;;;5.36;100.00;93987.78;5108801;28;20476;-73
2020/12/09 00:15:17;;;;;;;62.77;38.73;;;;;;;5.29;100.00;93991.88;5110227;28;20476;-72
2020/12/09 00:17:45;;;;;;;57.77;38.33;;;;;;;5.29;100.00;93981.66;5109985;28;20435;-72
2020/12/09 00:20:12;;;;;;;59.23;40.53;;;;;;;5.42;100.00;93983.81;5110358;28;20443;-72
2020/12/09 00:22:38;;;;;;;57.07;38.10;;;;;;;5.38;100.00;93987.63;5112121;28;20439;-72
2020/12/09 00:25:06;;;;;;;53.10;38.43;;;;;;;5.16;100.00;93984.59;5097611;28;21023;-72
2020/12/09 00:27:33;;;;;;;59.47;40.27;;;;;;;5.23;100.00;93987.38;5093199;28;20434;-73
2020/12/09 00:30:01;;;;;;;55.53;37.60;;;;;;;5.14;100.00;93983.97;5093449;28;20443;-72
2020/12/09 00:32:28;;;;;;;58.40;38.13;;;;;;;5.26;100.00;93980.19;5093079;28;20447;-72
2020/12/09 00:34:55;;;;;;;57.73;37.73;;;;;;;5.46;100.00;93979.22;5092913;28;20444;-72
2020/12/09 00:37:21;;;;;;;54.70;38.90;;;;;;;5.58;100.00;93980.53;5093125;28;20455;-73
2020/12/09 00:39:48;;;;;;;49.33;37.17;;;;;;;5.47;100.00;93961.16;5092914;28;20446;-72
2020/12/09 00:42:20;;;;;;;54.90;38.73;;;;;;;5.49;100.00;93978.91;5093287;28;20438;-73
2020/12/09 00:44:47;;;;;;;51.40;38.57;;;;;;;5.61;100.00;93971.78;5094107;28;20463;-72
2020/12/09 00:47:14;;;;;;;47.37;36.90;;;;;;;5.42;100.00;93976.13;5093220;28;20448;-73
2020/12/09 00:52:30;;;;;;;57.53;39.17;;;;;;;5.45;100.00;93980.97;5089795;28;20436;-72
2020/12/09 00:54:57;;;;;;;49.57;37.27;;;;;;;5.57;100.00;93973.84;5093206;28;20436;-72
2020/12/09 00:57:23;;;;;;;68.90;39.50;;;;;;;5.60;100.00;93968.41;5092837;28;20438;-73
2020/12/09 00:59:57;;;;;;;66.63;42.13;;;;;;;5.72;100.00;93963.03;5093127;28;20440;-72
2020/12/09 01:02:24;;;;;;;54.30;38.37;;;;;;;5.73;100.00;93972.31;5106736;28;20449;-72
2020/12/09 01:04:51;;;;;;;66.70;41.33;;;;;;;5.69;100.00;93964.16;5112745;28;20462;-73
2020/12/09 01:07:18;;;;;;;64.60;39.40;;;;;;;5.41;100.00;93969.44;5113144;28;20489;-72
2020/12/09 01:09:46;;;;;;;59.17;41.37;;;;;;;5.29;100.00;93968.88;5112759;28;20451;-72
2020/12/09 01:12:13;;;;;;;55.47;39.37;;;;;;;5.38;100.00;93964.63;5111279;28;20485;-73
2020/12/09 01:14:39;;;;;;;65.90;40.13;;;;;;;5.43;100.00;93962.44;5111501;28;20430;-72
2020/12/09 01:17:06;;;;;;;75.53;41.33;;;;;;;5.54;100.00;93961.38;5109440;28;20835;-72
2020/12/09 01:19:32;;;;;;;70.13;39.63;;;;;;;5.40;100.00;93942.28;5092125;28;20432;-72
2020/12/09 01:21:59;;;;;;;69.97;39.33;;;;;;;5.08;100.00;93977.72;5092406;28;20436;-72
2020/12/09 01:24:25;;;;;;;68.80;40.23;;;;;;;5.31;100.00;93966.97;5092207;28;20826;-72
2020/12/09 01:26:53;;;;;;;54.27;38.00;;;;;;;5.00;100.00;93964.88;5092449;28;20464;-72
2020/12/09 01:29:19;;;;;;;67.83;37.87;;;;;;;5.17;100.00;93955.59;5092287;28;20447;-72
2020/12/09 01:31:47;;;;;;;51.00;36.67;;;;;;;5.30;100.00;93957.75;5091992;28;20432;-72
2020/12/09 01:34:14;;;;;;;55.73;37.80;;;;;;;5.27;100.00;93950.38;5103143;28;20500;-73
2020/12/09 01:36:40;;;;;;;55.40;37.60;;;;;;;5.34;100.00;93941.16;5112639;28;20457;-72
2020/12/09 01:39:07;;;;;;;71.47;37.20;;;;;;;5.24;100.00;93937.91;5112557;28;20807;-72
2020/12/09 01:41:33;;;;;;;65.67;37.57;;;;;;;5.27;100.00;93930.75;5112127;28;20449;-72
2020/12/09 01:44:01;;;;;;;64.70;40.67;;;;;;;5.17;100.00;93942.03;5112016;28;20435;-72
2020/12/09 01:46:35;;;;;;;62.87;38.30;;;;;;;5.29;100.00;93948.47;5112030;28;20458;-72
2020/12/09 01:49:02;;;;;;;63.37;39.70;;;;;;;5.24;100.00;93933.59;5110840;28;20441;-72
2020/12/09 01:51:30;;;;;;;53.50;36.70;;;;;;;5.30;100.00;93931.41;5091804;28;20447;-73
2020/12/09 01:53:58;;;;;;;64.93;38.73;;;;;;;5.13;100.00;93937.19;5091876;28;20518;-72
2020/12/09 01:56:25;;;;;;;63.67;35.97;;;;;;;5.06;100.00;93922.66;5091806;28;20497;-73
2020/12/09 01:58:53;;;;;;;67.67;38.60;;;;;;;4.91;100.00;93934.19;5091448;28;20785;-72
2020/12/09 02:01:21;;;;;;;58.10;34.30;;;;;;;4.92;100.00;93925.59;5091329;28;20918;-72
2020/12/09 02:03:48;;;;;;;61.33;34.60;;;;;;;5.30;100.00;93922.00;5091324;28;20923;-72
2020/12/09 02:06:15;;;;;;;57.90;34.33;;;;;;;5.46;100.00;93925.59;5102469;28;20481;-72
2020/12/09 02:08:41;;;;;;;50.20;34.97;;;;;;;5.31;100.00;93918.47;5111960;28;20423;-72
2020/12/09 02:11:08;;;;;;;58.93;38.30;;;;;;;5.13;100.00;93914.22;5111867;28;20457;-73
2020/12/09 02:13:43;;;;;;;51.23;35.43;;;;;;;5.20;100.00;93922.09;5110334;28;20474;-72
2020/12/09 02:16:10;;;;;;;58.67;36.03;;;;;;;5.22;100.00;93935.50;5111531;28;20427;-72
2020/12/09 02:18:38;;;;;;;60.50;37.60;;;;;;;5.42;100.00;93914.84;5111302;28;20431;-72
2020/12/09 02:21:04;;;;;;;59.87;35.67;;;;;;;5.16;100.00;93918.22;5110380;28;20943;-73
2020/12/09 02:23:32;;;;;;;54.27;35.27;;;;;;;5.14;100.00;93920.13;5093229;28;20444;-72
2020/12/09 02:25:58;;;;;;;63.03;37.37;;;;;;;5.12;100.00;93925.41;5111243;28;20463;-72
2020/12/09 02:28:24;;;;;;;53.47;36.00;;;;;;;5.13;100.00;93924.44;5111488;28;20450;-72
2020/12/09 02:30:51;;;;;;;55.00;37.13;;;;;;;5.29;100.00;93925.47;5111307;28;20439;-73
2020/12/09 02:33:17;;;;;;;48.33;35.77;;;;;;;5.37;100.00;93919.63;5111733;28;20431;-72
2020/12/09 02:35:44;;;;;;;57.13;36.00;;;;;;;5.48;100.00;93931.34;5111370;28;21254;-72
2020/12/09 02:38:11;;;;;;;62.07;38.03;;;;;;;5.27;100.00;93938.41;5111870;28;20426;-72
2020/12/09 02:40:39;;;;;;;78.70;37.67;;;;;;;5.18;100.00;93921.44;5100419;28;20451;-73
2020/12/09 02:43:06;;;;;;;53.90;37.50;;;;;;;5.33;100.00;93926.00;5091220;28;20463;-72
2020/12/09 02:45:32;;;;;;;50.57;37.20;;;;;;;5.34;100.00;93932.69;5090912;28;20479;-73
2020/12/09 02:47:59;;;;;;;67.83;38.10;;;;;;;5.14;100.00;93931.16;5090658;28;20450;-72
2020/12/09 02:50:25;;;;;;;52.93;37.83;;;;;;;5.15;100.00;93926.88;5090677;28;20424;-72
2020/12/09 02:52:52;;;;;;;64.43;36.77;;;;;;;5.04;100.00;93912.59;5090876;28;20444;-72
2020/12/09 02:55:19;;;;;;;50.53;37.10;;;;;;;5.32;100.00;93924.38;5090895;28;20434;-72
2020/12/09 02:57:47;;;;;;;54.43;35.30;;;;;;;5.48;100.00;93924.47;5109831;28;21025;-72
2020/12/09 03:00:14;;;;;;;55.30;37.63;;;;;;;5.45;100.00;93939.28;5111262;28;20439;-72
2020/12/09 03:02:41;;;;;;;66.03;40.70;;;;;;;5.49;100.00;93935.47;5110979;28;21303;-72
2020/12/09 03:05:08;;;;;;;50.00;36.97;;;;;;;5.57;100.00;93921.94;5107214;28;20471;-72
2020/12/09 03:07:35;;;;;;;60.03;39.70;;;;;;;5.36;100.00;93941.00;5090586;28;20440;-72
2020/12/09 03:10:02;;;;;;;59.60;40.67;;;;;;;5.50;100.00;93939.66;5092845;28;20461;-72
2020/12/09 03:12:35;;;;;;;65.27;40.80;;;;;;;5.34;100.00;93941.16;5100727;28;21433;-72
2020/12/09 03:15:03;;;;;;;61.13;39.40;;;;;;;5.09;100.00;93956.31;5090633;28;20432;-73
2020/12/09 03:17:30;;;;;;;62.27;39.87;;;;;;;5.05;100.00;93955.03;5090205;28;20440;-72
2020/12/09 03:19:56;;;;;;;54.60;38.53;;;;;;;4.99;100.00;93947.97;5072803;28;20447;-72
2020/12/09 03:22:23;;;;;;;60.67;36.47;;;;;;;4.97;100.00;93926.91;5090171;28;20947;-72
2020/12/09 03:24:49;;;;;;;63.80;38.80;;;;;;;5.25;100.00;93936.94;5090341;28;20815;-73
2020/12/09 03:27:15;;;;;;;54.80;36.47;;;;;;;5.29;100.00;93934.91;5090454;28;20540;-72
2020/12/09 03:29:42;;;;;;;54.10;35.13;;;;;;;5.36;100.00;93923.94;5107975;28;20439;-72
2020/12/09 03:32:09;;;;;;;53.73;37.33;;;;;;;5.38;100.00;93923.78;5110755;28;20474;-72
2020/12/09 03:34:36;;;;;;;55.87;36.10;;;;;;;5.51;100.00;93923.34;5110323;28;20473;-72
2020/12/09 03:37:02;;;;;;;54.70;37.40;;;;;;;5.29;100.00;93932.38;5110358;28;20437;-72
2020/12/09 03:39:28;;;;;;;52.87;36.23;;;;;;;5.14;100.00;93923.50;5110281;28;20830;-72
2020/12/09 03:41:55;;;;;;;57.57;36.50;;;;;;;5.01;100.00;93918.81;5110731;28;20441;-72
2020/12/09 03:44:21;;;;;;;44.67;35.13;;;;;;;5.26;100.00;93910.47;5103343;28;20458;-72
2020/12/09 03:46:48;;;;;;;52.77;37.23;;;;;;;5.36;100.00;93915.47;5090584;28;20467;-73
2020/12/09 03:49:15;;;;;;;45.13;36.20;;;;;;;5.37;100.00;93899.22;5090199;28;21165;-72
2020/12/09 03:51:41;;;;;;;50.83;34.60;;;;;;;5.44;100.00;93899.41;5090122;28;20443;-72
2020/12/09 03:54:08;;;;;;;45.07;33.43;;;;;;;5.65;100.00;93898.19;5090345;28;20454;-72
2020/12/09 03:56:34;;;;;;;56.50;35.60;;;;;;;5.51;100.00;93900.38;5090935;28;20435;-73
2020/12/09 03:59:01;;;;;;;46.30;34.00;;;;;;;5.59;100.00;93905.53;5093766;28;20448;-72
2020/12/09 04:01:27;;;;;;;43.73;33.33;;;;;;;5.39;100.00;93915.16;5107730;28;20443;-72
2020/12/09 04:03:54;;;;;;;39.80;33.27;;;;;;;4.74;100.00;93920.53;5113995;28;20437;-72
2020/12/09 04:06:21;;;;;;;35.13;29.70;;;;;;;4.74;100.00;93914.63;5114308;28;20455;-72
2020/12/09 04:08:47;;;;;;;32.20;28.90;;;;;;;4.70;100.00;93901.38;5103116;28;20448;-72
2020/12/09 04:11:14;;;;;;;37.00;29.30;;;;;;;4.70;100.00;93897.03;5093698;28;20448;-73
2020/12/09 04:13:40;;;;;;;27.57;24.80;;;;;;;4.69;100.00;93892.91;5092295;28;20480;-72
2020/12/09 04:16:07;;;;;;;29.07;26.10;;;;;;;4.69;100.00;93887.81;5093777;28;20434;-72
2020/12/09 04:18:33;;;;;;;31.20;27.20;;;;;;;4.76;100.00;93905.06;5093370;28;20432;-73
2020/12/09 04:21:00;;;;;;;28.83;25.80;;;;;;;4.70;100.00;93889.41;5093157;28;20968;-73
2020/12/09 04:23:28;;;;;;;27.00;24.37;;;;;;;4.73;100.00;93892.63;5093185;28;20436;-73
2020/12/09 04:25:54;;;;;;;29.90;25.63;;;;;;;4.70;100.00;93881.75;5111943;28;20465;-71
2020/12/09 04:28:21;;;;;;;29.07;26.10;;;;;;;4.73;100.00;93884.97;5113710;28;20461;-72
2020/12/09 04:30:47;;;;;;;28.37;25.57;;;;;;;4.66;100.00;93880.44;5113214;28;20441;-72
2020/12/09 04:33:13;;;;;;;28.47;25.43;;;;;;;4.72;100.00;93884.16;5113504;28;20526;-74
2020/12/09 04:35:40;;;;;;;29.60;26.47;;;;;;;4.77;100.00;93876.84;5113558;28;20439;-73
2020/12/09 04:38:07;;;;;;;30.93;25.60;;;;;;;4.79;100.00;93869.06;5113834;28;20427;-73
2020/12/09 04:40:34;;;;;;;28.63;25.73;;;;;;;4.68;100.00;93888.75;5105933;28;20442;-73
2020/12/09 04:43:02;;;;;;;32.57;26.50;;;;;;;4.67;100.00;93859.09;5093046;28;20486;-72
2020/12/09 04:45:31;;;;;;;28.00;25.23;;;;;;;4.73;100.00;93887.53;5108931;28;20489;-73
2020/12/09 04:48:07;;;;;;;29.17;26.27;;;;;;;4.70;100.00;93880.97;5113490;28;20442;-73
2020/12/09 04:50:37;;;;;;;34.80;25.87;;;;;;;4.75;100.00;93888.19;5112982;28;20949;-73
2020/12/09 04:53:10;;;;;;;28.40;25.67;;;;;;;4.66;100.00;93885.53;5113147;28;20794;-72
2020/12/09 04:55:50;;;;;;;27.73;25.03;;;;;;;4.75;100.00;93906.03;5113275;28;20442;-72
2020/12/09 04:58:17;;;;;;;26.10;23.50;;;;;;;4.67;100.00;93905.00;5113432;28;20441;-73
2020/12/09 05:00:45;;;;;;;27.53;24.80;;;;;;;4.75;100.00;93909.34;5103647;28;20502;-73
2020/12/09 05:03:19;;;;;;;34.63;25.30;;;;;;;4.77;100.00;93906.69;5092875;28;20810;-74
2020/12/09 05:05:47;;;;;;;26.23;23.50;;;;;;;4.87;100.00;93909.13;5092581;28;20468;-74
2020/12/09 05:08:19;;;;;;;26.83;24.03;;;;;;;4.75;100.00;93908.59;5091107;28;20444;-73
2020/12/09 05:10:49;;;;;;;32.27;25.77;;;;;;;4.72;100.00;93908.88;5092732;28;20455;-73
2020/12/09 05:13:24;;;;;;;27.53;24.57;;;;;;;4.72;100.00;93940.28;5091189;28;20993;-75
2020/12/09 05:15:58;;;;;;;31.63;25.70;;;;;;;4.58;100.00;93908.44;5093440;28;20427;-73
2020/12/09 05:18:39;;;;;;;27.63;24.47;;;;;;;4.73;100.00;93928.34;5112526;28;20423;-73
2020/12/09 05:21:11;;;;;;;31.33;26.27;;;;;;;4.67;100.00;93917.75;5112377;28;20431;-72
2020/12/09 05:23:43;;;;;;;28.30;25.47;;;;;;;4.64;100.00;93904.50;5112328;28;20439;-73
2020/12/09 05:26:21;;;;;;;35.57;26.77;;;;;;;4.78;100.00;93918.47;5112650;28;20828;-73
2020/12/09 05:28:48;;;;;;;26.43;23.67;;;;;;;4.78;100.00;93900.63;5107970;28;20443;-73
2020/12/09 05:31:21;;;;;;;28.57;25.70;;;;;;;4.74;100.00;93917.16;5092052;28;20432;-73
2020/12/09 05:33:48;;;;;;;31.97;25.33;;;;;;;4.66;100.00;93912.81;5092087;28;20432;-73
2020/12/09 05:36:15;;;;;;;63.90;42.57;;;;;;;4.91;100.00;93915.53;5092198;28;20424;-75
2020/12/09 05:38:41;;;;;;;58.77;41.37;;;;;;;4.93;100.00;93927.19;5092051;28;20467;-74
2020/12/09 05:41:12;;;;;;;32.53;27.47;;;;;;;4.81;100.00;93920.75;5091651;28;20438;-75
2020/12/09 05:43:45;;;;;;;27.10;24.20;;;;;;;4.66;100.00;93918.69;5105721;28;20455;-73
2020/12/09 05:46:11;;;;;;;30.53;24.93;;;;;;;4.81;100.00;93941.97;5110076;28;20498;-74
2020/12/09 05:48:38;;;;;;;26.90;24.37;;;;;;;4.70;100.00;93932.75;5110363;28;20434;-74
2020/12/09 05:51:06;;;;;;;38.43;27.00;;;;;;;4.74;100.00;93951.13;5091377;28;20901;-74
2020/12/09 05:53:34;;;;;;;27.47;24.50;;;;;;;4.78;100.00;93966.94;5091365;28;20527;-73
2020/12/09 05:56:12;;;;;;;31.33;25.83;;;;;;;4.78;100.00;93966.94;5090981;28;20429;-74
2020/12/09 05:58:40;;;;;;;30.60;26.77;;;;;;;4.85;100.00;93969.72;5093764;28;20438;-74
2020/12/09 06:01:16;;;;;;;33.30;27.10;;;;;;;4.88;100.00;93959.22;5091058;28;20447;-74
2020/12/09 06:03:44;;;;;;;32.70;26.57;;;;;;;4.80;100.00;93948.00;5110258;28;20445;-74
2020/12/09 06:06:16;;;;;;;27.07;24.33;;;;;;;4.80;100.00;93967.59;5099151;28;20507;-74
2020/12/09 06:08:45;;;;;;;30.80;25.27;;;;;;;4.77;100.00;93958.47;5091499;28;20435;-73
2020/12/09 06:11:14;;;;;;;34.00;25.17;;;;;;;4.82;100.00;93955.50;5091417;28;20448;-73
2020/12/09 06:13:41;;;;;;;29.97;25.23;;;;;;;4.79;100.00;93969.34;5103698;28;21010;-74
2020/12/09 06:16:09;;;;;;;28.83;25.23;;;;;;;4.83;100.00;93961.41;5109634;28;20432;-75
2020/12/09 06:18:37;;;;;;;33.93;26.10;;;;;;;4.81;100.00;93969.22;5104091;28;20489;-74
2020/12/09 06:21:05;;;;;;;34.70;26.70;;;;;;;4.77;100.00;93962.81;5107392;28;20436;-74
2020/12/09 06:23:32;;;;;;;48.63;28.90;;;;;;;4.72;100.00;93972.63;5091157;28;20436;-74
2020/12/09 06:26:01;;;;;;;33.80;26.30;;;;;;;4.74;100.00;93984.31;5091518;28;21020;-73
2020/12/09 06:28:31;;;;;;;31.50;26.80;;;;;;;4.77;100.00;93971.25;5088168;28;20500;-79
2020/12/09 06:30:58;;;;;;;30.87;26.63;;;;;;;4.54;100.00;93965.78;5090752;28;21048;-75
2020/12/09 06:33:39;;;;;;;33.77;26.57;;;;;;;4.58;100.00;93990.06;5109962;28;20983;-75
2020/12/09 06:36:20;;;;;;;175.10;87.43;;;;;;;4.97;100.00;93988.97;5110153;28;20430;-73
2020/12/09 06:39:29;;;;;;;33.93;26.90;;;;;;;4.89;100.00;93987.13;5090361;28;20786;-75
2020/12/09 06:42:10;;;;;;;27.80;24.90;;;;;;;4.72;100.00;93978.56;5090562;28;20439;-74
2020/12/09 06:44:50;;;;;;;28.63;25.17;;;;;;;4.74;100.00;93968.19;5095019;28;20448;-76
2020/12/09 06:47:17;;;;;;;28.93;26.10;;;;;;;4.69;100.00;93977.09;5090640;28;20993;-77
2020/12/09 06:49:45;;;;;;;31.07;25.70;;;;;;;4.61;100.00;93971.94;5091119;28;20509;-77
2020/12/09 06:52:44;;;;;;;29.70;25.97;;;;;;;4.51;100.00;93983.94;5090486;28;20496;-76
2020/12/09 06:55:19;;;;;;;27.57;24.57;;;;;;;4.56;100.00;93986.84;5030603;28;20980;-75
2020/12/09 06:57:46;;;;;;;32.87;24.33;;;;;;;4.65;100.00;93983.44;5042087;28;20449;-76
2020/12/09 07:00:15;;;;;;;30.90;25.30;;;;;;;4.56;100.00;94028.47;5058924;28;20440;-77
2020/12/09 07:02:43;;;;;;;40.40;30.97;;;;;;;4.65;100.00;94000.47;5090887;28;20436;-76
2020/12/09 07:05:11;;;;;;;28.53;25.30;;;;;;;4.63;100.00;93992.19;5090533;28;20431;-75
2020/12/09 07:07:40;;;;;;;26.03;23.60;;;;;;;4.56;100.00;93997.06;5090867;28;21022;-77
2020/12/09 07:10:22;;;;;;;28.23;25.43;;;;;;;4.62;100.00;93986.25;5090649;28;20772;-75
2020/12/09 07:12:50;;;;;;;25.73;23.00;;;;;;;4.54;100.00;93987.00;5089269;28;20833;-75
2020/12/09 07:15:18;;;;;;;29.87;24.67;;;;;;;4.45;100.00;93983.59;5090240;28;20822;-75
2020/12/09 07:17:44;;;;;;;34.33;25.53;;;;;;;4.50;100.00;93983.16;5106085;28;20445;-73
2020/12/09 07:20:11;;;;;;;33.60;25.30;;;;;;;4.62;100.00;93999.03;5105379;28;21019;-74
2020/12/09 07:22:39;;;;;;;28.60;24.37;;;;;;;4.61;100.00;93986.41;5103246;28;20962;-72
2020/12/09 07:25:06;;;;;;;31.90;24.57;;;;;;;4.57;100.00;93983.38;5090083;28;20436;-72
2020/12/09 07:27:35;;;;;;;28.03;25.40;;;;;;;4.62;100.00;93981.16;5096280;28;20478;-74
2020/12/09 07:30:06;;;;;;;26.47;23.73;;;;;;;4.69;100.00;93986.47;5109846;28;20813;-73
2020/12/09 07:32:40;;;;;;;26.30;23.90;;;;;;;4.54;100.00;93986.19;5107380;28;20463;-72
2020/12/09 07:35:09;;;;;;;28.87;24.33;;;;;;;4.67;100.00;93989.19;5093584;28;20486;-72
2020/12/09 07:37:41;;;;;;;33.07;24.83;;;;;;;4.61;100.00;93996.63;5094068;28;20440;-77
2020/12/09 07:40:16;;;;;;;25.33;22.73;;;;;;;4.67;100.00;94014.69;5112782;28;20450;-73
2020/12/09 07:42:43;;;;;;;26.53;23.93;;;;;;;4.53;100.00;93994.78;5094858;28;20618;-74
2020/12/09 07:45:12;;;;;;;25.47;23.07;;;;;;;4.76;100.00;94000.25;5093838;28;20424;-74
2020/12/09 07:47:43;;;;;;;25.80;23.20;;;;;;;4.91;100.00;94008.19;5093496;28;20849;-75
2020/12/09 07:50:09;;;;;;;25.03;22.60;;;;;;;4.96;100.00;93995.00;5093258;28;20490;-74
2020/12/09 07:52:37;;;;;;;26.30;23.83;;;;;;;4.65;100.00;93985.19;5093980;28;20436;-75
2020/12/09 07:55:08;;;;;;;26.60;24.10;;;;;;;4.71;100.00;93997.34;5093931;28;20450;-74
2020/12/09 07:57:36;;;;;;;25.60;23.10;;;;;;;4.86;100.00;93997.63;5093372;28;20481;-74
2020/12/09 08:00:06;;;;;;;26.57;24.07;;;;;;;5.00;100.00;93988.66;5093236;28;20432;-76
2020/12/09 08:02:36;;;;;;;26.10;23.50;;;;;;;5.10;100.00;93978.34;5093371;28;20428;-77
2020/12/09 08:05:09;;;;;;;27.23;23.07;;;;;;;4.99;100.00;93986.25;5093471;28;20435;-74
2020/12/09 08:07:51;;;;;;;27.43;23.40;;;;;;;4.90;100.00;93980.28;5093678;28;20466;-75
2020/12/09 08:10:21;;;;;;;26.03;23.80;;;;;;;5.01;100.00;93979.25;5093192;28;20904;-75
2020/12/09 08:12:48;;;;;;;27.83;24.83;;;;;;;4.91;100.00;93980.13;5092336;28;20435;-75
2020/12/09 08:15:14;;;;;;;26.27;23.60;;;;;;;4.79;100.00;93977.00;5093721;28;20543;-75
2020/12/09 08:17:46;;;;;;;26.50;23.23;;;;;;;4.86;100.00;93987.41;5093142;28;21202;-76
2020/12/09 08:20:14;;;;;;;28.63;24.13;;;;;;;4.86;100.00;93986.63;5093104;28;20438;-76
2020/12/09 08:23:01;;;;;;;25.27;23.20;;;;;;;4.91;100.00;94000.53;5093149;28;20443;-77
2020/12/09 08:25:30;;;;;;;27.27;24.50;;;;;;;4.89;100.00;94004.19;5092811;28;20427;-76
2020/12/09 08:28:04;;;;;;;24.47;22.47;;;;;;;4.81;100.00;94010.03;5092924;28;20436;-78
2020/12/09 08:30:31;;;;;;;24.60;22.70;;;;;;;4.90;100.00;94023.66;5092933;28;20972;-77
2020/12/09 08:33:14;;;;;;;24.83;22.67;;;;;;;4.91;100.00;94036.28;5093067;28;20447;-75
2020/12/09 08:35:50;;;;;;;24.67;22.27;;;;;;;5.02;100.00;94029.31;5093016;28;20431;-75
2020/12/09 08:38:28;;;;;;;26.33;23.97;;;;;;;4.84;100.00;94030.13;5092601;28;20439;-75
2020/12/09 08:40:57;;;;;;;24.27;22.20;;;;;;;4.84;100.00;94030.13;5092475;28;20431;-76
2020/12/09 08:43:24;;;;;;;27.80;25.10;;;;;;;5.02;100.00;94032.69;5092086;28;20431;-72
2020/12/09 08:45:50;;;;;;;27.13;24.77;;;;;;;5.00;100.00;94033.78;5092622;28;20464;-73
2020/12/09 08:48:26;;;;;;;25.70;23.47;;;;;;;5.07;100.00;94029.69;5092148;28;20436;-74
2020/12/09 08:50:54;;;;;;;27.33;24.50;;;;;;;5.10;100.00;94036.25;5092645;28;20423;-72
2020/12/09 08:53:21;;;;;;;25.90;23.37;;;;;;;5.20;100.00;94047.19;5092276;28;20531;-74
2020/12/09 08:55:48;;;;;;;25.70;23.37;;;;;;;5.12;100.00;94031.81;5092209;28;20959;-76
2020/12/09 08:58:15;;;;;;;25.83;23.70;;;;;;;5.08;100.00;94035.59;5092151;28;20452;-74
2020/12/09 09:00:42;;;;;;;26.40;23.63;;;;;;;4.90;100.00;94021.91;5092276;28;20432;-75
2020/12/09 09:03:11;;;;;;;27.17;24.40;;;;;;;5.07;100.00;94034.81;5092381;28;20435;-76
2020/12/09 09:05:46;;;;;;;25.27;22.70;;;;;;;4.94;100.00;94017.31;5092831;28;20436;-77
2020/12/09 09:08:15;;;;;;;24.13;21.93;;;;;;;5.09;100.00;93993.81;5092279;28;20803;-74
2020/12/09 09:10:42;;;;;;;24.93;22.70;;;;;;;5.17;100.00;94005.84;5092475;28;20451;-74
2020/12/09 09:13:08;;;;;;;26.57;23.87;;;;;;;5.12;100.00;94007.09;5097993;28;20475;-74
2020/12/09 09:15:35;;;;;;;25.63;23.00;;;;;;;5.20;100.00;93996.13;5112245;28;20451;-75
2020/12/09 09:18:02;;;;;;;26.50;23.73;;;;;;;5.28;100.00;94005.59;5112754;28;20514;-73
2020/12/09 09:20:29;;;;;;;25.00;22.70;;;;;;;5.28;100.00;93992.84;5112190;28;20454;-72
2020/12/09 09:22:55;;;;;;;24.53;22.40;;;;;;;5.42;100.00;93991.47;5111892;28;20441;-73
2020/12/09 09:25:24;;;;;;;24.47;22.13;;;;;;;5.53;100.00;93985.31;5111772;28;20431;-73
2020/12/09 09:27:52;;;;;;;25.83;23.50;;;;;;;5.60;100.00;93978.63;5108769;28;20511;-72
2020/12/09 09:30:19;;;;;;;25.30;23.20;;;;;;;5.57;100.00;93968.75;5109805;28;20434;-71
2020/12/09 09:32:46;;;;;;;26.17;23.87;;;;;;;5.81;100.00;93963.88;5109998;28;20442;-71
2020/12/09 09:35:12;;;;;;;27.20;24.40;;;;;;;5.76;100.00;93951.56;5109921;28;20453;-73
2020/12/09 09:37:41;;;;;;;25.33;23.03;;;;;;;5.76;100.00;93915.00;5109644;28;20443;-73
2020/12/09 09:40:07;;;;;;;26.77;24.37;;;;;;;5.58;100.00;93903.91;5109724;28;20455;-72
2020/12/09 09:42:35;;;;;;;25.17;22.67;;;;;;;5.82;100.00;93881.16;5110823;28;20436;-73
2020/12/09 09:45:02;;;;;;;25.20;22.80;;;;;;;5.84;100.00;93864.72;5111449;28;20913;-73
2020/12/09 09:47:31;;;;;;;24.23;22.20;;;;;;;5.72;100.00;93845.50;5111421;28;20478;-73
2020/12/09 09:49:58;;;;;;;25.60;23.23;;;;;;;5.76;100.00;93854.47;5111321;28;20519;-72
2020/12/09 09:52:24;;;;;;;25.47;23.07;;;;;;;5.83;100.00;93847.78;5111016;28;20428;-71
2020/12/09 09:54:50;;;;;;;26.10;22.30;;;;;;;5.88;100.00;93819.19;5109740;28;20476;-72
2020/12/09 09:57:17;;;;;;;26.90;24.20;;;;;;;5.76;100.00;93816.13;5110265;28;20423;-72
2020/12/09 09:59:44;;;;;;;27.20;23.50;;;;;;;5.73;100.00;93804.47;5111432;28;20434;-72
2020/12/09 10:02:14;;;;;;;24.83;22.63;;;;;;;5.75;100.00;93818.84;5110972;28;20447;-72
2020/12/09 10:04:40;;;;;;;23.87;21.73;;;;;;;5.48;100.00;93773.78;5110988;28;20431;-74
2020/12/09 10:07:07;;;;;;;24.33;22.30;;;;;;;5.63;100.00;93768.06;5111241;28;20467;-72
2020/12/09 10:09:33;;;;;;;24.00;21.73;;;;;;;5.63;100.00;93759.59;5110808;28;20477;-72
2020/12/09 10:12:03;;;;;;;26.97;24.23;;;;;;;5.80;100.00;93752.75;5110819;28;20526;-73
2020/12/09 10:14:29;;;;;;;26.33;23.70;;;;;;;5.75;100.00;93743.00;5109319;28;20482;-73
2020/12/09 10:16:59;;;;;;;24.63;22.33;;;;;;;5.81;100.00;93729.59;5110875;28;20431;-72
2020/12/09 10:19:26;;;;;;;25.00;22.20;;;;;;;5.83;100.00;93726.88;5110687;28;20928;-72
2020/12/09 10:21:53;;;;;;;24.50;22.37;;;;;;;5.79;100.00;93718.72;5110543;28;20440;-72
2020/12/09 10:24:21;;;;;;;25.10;22.50;;;;;;;5.76;100.00;93698.59;5110630;28;20439;-72
2020/12/09 10:26:47;;;;;;;24.80;22.60;;;;;;;5.60;100.00;93691.75;5110436;28;20466;-71
2020/12/09 10:29:14;;;;;;;27.30;23.00;;;;;;;5.63;100.00;93680.41;5110545;28;20439;-72
2020/12/09 10:31:42;;;;;;;23.67;21.77;;;;;;;5.77;100.00;93679.78;5110581;28;20824;-73
2020/12/09 10:34:11;;;;;;;25.20;22.90;;;;;;;5.75;100.00;93668.91;5110742;28;20442;-71
2020/12/09 10:36:39;;;;;;;25.90;23.57;;;;;;;5.86;100.00;93672.91;5111026;28;20431;-71
2020/12/09 10:39:07;;;;;;;23.37;21.20;;;;;;;5.87;100.00;93643.81;5110452;28;20453;-71
2020/12/09 10:41:33;;;;;;;23.90;21.33;;;;;;;5.94;100.00;93646.53;5110336;28;20522;-71
2020/12/09 10:44:00;;;;;;;24.10;22.07;;;;;;;5.87;100.00;93635.38;5110364;28;20437;-73
2020/12/09 10:46:31;;;;;;;23.33;21.40;;;;;;;5.90;100.00;93620.50;5113001;28;20487;-72
2020/12/09 10:48:58;;;;;;;23.23;21.23;;;;;;;5.69;100.00;93618.47;5112340;28;20428;-72
2020/12/09 10:51:26;;;;;;;23.60;21.80;;;;;;;5.84;100.00;93624.53;5110194;28;20471;-73
2020/12/09 10:53:52;;;;;;;22.70;20.80;;;;;;;5.94;100.00;93616.66;5110358;28;20445;-73
2020/12/09 10:56:25;;;;;;;23.50;21.80;;;;;;;5.93;100.00;93609.97;5110110;28;20811;-73
2020/12/09 10:58:51;;;;;;;24.63;22.27;;;;;;;5.90;100.00;93617.94;5110200;28;20423;-73
2020/12/09 11:01:19;;;;;;;23.67;21.83;;;;;;;5.99;100.00;93613.63;5109830;28;20453;-73
2020/12/09 11:03:46;;;;;;;25.30;22.80;;;;;;;6.02;100.00;93595.41;5110054;28;20925;-72
2020/12/09 11:06:12;;;;;;;23.83;21.90;;;;;;;5.88;100.00;93606.28;5110128;28;20984;-73
2020/12/09 11:08:40;;;;;;;21.97;20.10;;;;;;;5.88;100.00;93586.66;5109763;28;20952;-73
2020/12/09 11:11:07;;;;;;;23.00;21.20;;;;;;;5.84;100.00;93596.41;5110156;28;20451;-72
2020/12/09 11:13:33;;;;;;;23.47;21.13;;;;;;;5.86;100.00;93595.44;5107927;28;20502;-75
2020/12/09 11:16:00;;;;;;;24.17;21.63;;;;;;;5.90;100.00;93577.06;5110014;28;20435;-72
2020/12/09 11:18:26;;;;;;;23.63;21.93;;;;;;;5.91;100.00;93585.53;5110286;28;20443;-72
2020/12/09 11:20:53;;;;;;;22.47;20.87;;;;;;;6.04;100.00;93587.56;5108427;28;20468;-74
2020/12/09 11:23:20;;;;;;;23.03;21.00;;;;;;;6.09;100.00;93594.78;5109986;28;20449;-90
2020/12/09 11:25:47;;;;;;;24.67;22.63;;;;;;;6.21;100.00;93590.88;5110442;28;20428;-73